Time;durP1;ratioP1;P1;durP2;ratioP2;P2;SDS_P1;SDS_P2;PMS_P1;PMS_P2;Temp;Humidity;BMP_temperature;BMP_pressure;BME280_temperature;BME280_humidity;BME280_pressure;Samples;Min_cycle;Max_cycle;Signal;HPM_P1;HPM_P2
2023/06/15 00:01:27;;;;;;;28.10;1.67;;;;;;;18.39;57.57;95297.75;4323122;32;20216;-65
2023/06/15 00:03:52;;;;;;;1.13;1.13;;;;;;;18.19;57.56;95299.53;4313118;32;20193;-65
2023/06/15 00:06:19;;;;;;;0.83;0.83;;;;;;;18.27;57.16;95299.72;4333658;32;20231;-65
2023/06/15 00:08:47;;;;;;;1.30;1.20;;;;;;;18.35;57.65;95306.84;4319971;32;20265;-65
2023/06/15 00:11:14;;;;;;;1.07;1.07;;;;;;;18.24;56.58;95306.56;4328138;32;20198;-65
2023/06/15 00:13:39;;;;;;;1.37;1.27;;;;;;;18.15;57.81;95306.69;4318696;32;20252;-65
2023/06/15 00:16:06;;;;;;;0.60;0.60;;;;;;;18.32;58.00;95302.91;4307926;32;20220;-65
2023/06/15 00:18:32;;;;;;;1.13;1.03;;;;;;;18.33;57.35;95304.50;4269860;33;20312;-65
2023/06/15 00:21:02;;;;;;;0.53;0.53;;;;;;;18.32;56.98;95305.59;4275444;33;20202;-65
2023/06/15 00:23:32;;;;;;;1.40;1.30;;;;;;;18.19;58.13;95309.47;4314020;32;20189;-65
2023/06/15 00:26:00;;;;;;;1.23;1.23;;;;;;;18.13;57.64;95310.84;4340749;32;20197;-65
2023/06/15 00:28:29;;;;;;;1.37;1.27;;;;;;;18.27;57.56;95310.47;4328344;32;20283;-64
2023/06/15 00:30:57;;;;;;;1.30;1.30;;;;;;;18.18;58.79;95310.59;4331590;32;20227;-64
2023/06/15 00:33:23;;;;;;;2.10;1.70;;;;;;;18.26;58.79;95312.38;4314541;32;20190;-64
2023/06/15 00:35:50;;;;;;;1.10;1.10;;;;;;;18.16;57.69;95310.16;4296560;32;20200;-64
2023/06/15 00:38:16;;;;;;;1.27;1.27;;;;;;;18.14;58.27;95318.56;4331024;32;20292;-64
2023/06/15 00:40:45;;;;;;;1.10;1.10;;;;;;;17.98;58.49;95308.88;4329284;32;20299;-65
2023/06/15 00:43:11;;;;;;;1.60;1.50;;;;;;;18.20;58.86;95313.72;4350169;32;20195;-65
2023/06/15 00:45:38;;;;;;;1.10;1.10;;;;;;;18.06;58.33;95318.72;4312816;32;20202;-64
2023/06/15 00:48:05;;;;;;;2.30;1.77;;;;;;;18.10;59.33;95319.56;4312127;32;20437;-64
2023/06/15 00:50:33;;;;;;;1.40;1.40;;;;;;;18.16;58.82;95320.91;4326493;32;20220;-64
2023/06/15 00:53:05;;;;;;;1.03;1.03;;;;;;;18.21;59.22;95326.03;4323865;32;20194;-64
2023/06/15 00:55:35;;;;;;;1.23;1.13;;;;;;;18.04;58.49;95329.00;4295224;32;20249;-66
2023/06/15 00:58:03;;;;;;;1.20;1.20;;;;;;;18.08;59.65;95327.22;4300901;32;20255;-64
2023/06/15 01:00:37;;;;;;;1.67;1.57;;;;;;;18.01;59.43;95332.38;4260835;32;20195;-64
2023/06/15 01:03:06;;;;;;;1.20;1.20;;;;;;;18.03;59.43;95333.59;4307080;32;20216;-64
2023/06/15 01:05:34;;;;;;;1.17;1.17;;;;;;;17.87;59.53;95334.66;4321073;32;20200;-64
2023/06/15 01:08:13;;;;;;;1.03;0.97;;;;;;;17.87;58.46;95337.31;4316400;32;20193;-64
2023/06/15 01:10:41;;;;;;;1.00;1.00;;;;;;;17.74;60.57;95329.28;4313412;32;20216;-64
2023/06/15 01:13:12;;;;;;;1.00;1.00;;;;;;;17.82;61.37;95323.03;4343146;32;20200;-64
2023/06/15 01:15:59;;;;;;;3.10;1.90;;;;;;;17.86;60.58;95328.50;4294657;32;20185;-64
2023/06/15 01:18:25;;;;;;;0.83;0.83;;;;;;;17.85;61.27;95325.03;4293207;32;20209;-64
2023/06/15 01:20:56;;;;;;;0.67;0.67;;;;;;;17.70;61.27;95328.37;4314946;32;20210;-64
2023/06/15 01:23:58;;;;;;;1.13;1.13;;;;;;;17.63;60.76;95325.47;4336260;32;20197;-64
2023/06/15 01:26:28;;;;;;;0.87;0.87;;;;;;;17.72;61.39;95318.09;4317737;32;20217;-65
2023/06/15 01:28:55;;;;;;;2.43;0.93;;;;;;;17.75;61.34;95316.66;4323478;32;20229;-64
2023/06/15 01:31:24;;;;;;;1.13;1.13;;;;;;;17.72;61.68;95312.72;4337943;32;20193;-64
2023/06/15 01:33:51;;;;;;;0.77;0.77;;;;;;;17.74;61.45;95320.44;4337588;32;20213;-64
2023/06/15 01:36:24;;;;;;;0.90;0.90;;;;;;;17.73;62.02;95311.63;4338454;32;20260;-65
2023/06/15 01:38:55;;;;;;;0.90;0.90;;;;;;;17.77;62.85;95309.03;4306677;33;20256;-66
2023/06/15 01:41:25;;;;;;;1.47;1.13;;;;;;;17.75;62.50;95309.38;4275815;33;20189;-65
2023/06/15 01:43:59;;;;;;;1.13;1.13;;;;;;;17.84;61.78;95309.25;4291926;32;20205;-64
2023/06/15 01:46:26;;;;;;;0.80;0.80;;;;;;;17.87;62.31;95307.81;4295624;32;20312;-64
2023/06/15 01:48:55;;;;;;;1.93;1.83;;;;;;;17.74;61.76;95309.72;4320409;32;20200;-64
2023/06/15 01:51:32;;;;;;;1.20;1.20;;;;;;;17.72;61.43;95312.72;4304702;33;20177;-64
2023/06/15 01:53:58;;;;;;;2.13;1.00;;;;;;;17.67;62.74;95301.44;4307314;32;20198;-64
2023/06/15 01:56:28;;;;;;;1.23;1.23;;;;;;;17.56;62.80;95314.53;4316535;32;20197;-64
2023/06/15 01:58:54;;;;;;;2.60;1.50;;;;;;;17.64;63.12;95308.28;4274186;33;20304;-65
2023/06/15 02:01:41;;;;;;;0.87;0.87;;;;;;;17.56;62.69;95308.38;4298738;32;20245;-64
2023/06/15 02:04:07;;;;;;;1.20;1.20;;;;;;;17.62;63.53;95307.03;4283663;33;20200;-64
2023/06/15 02:06:33;;;;;;;7.40;1.67;;;;;;;17.57;63.34;95307.25;4273972;33;20209;-64
2023/06/15 02:08:58;;;;;;;1.57;1.53;;;;;;;17.59;63.36;95308.50;4279566;32;20273;-64
2023/06/15 02:11:25;;;;;;;3.57;1.63;;;;;;;17.54;63.59;95311.41;4323563;32;20228;-66
2023/06/15 02:13:52;;;;;;;1.53;1.20;;;;;;;17.44;63.89;95307.28;4319850;32;20198;-64
2023/06/15 02:16:22;;;;;;;2.63;0.67;;;;;;;17.63;64.32;95319.34;4324354;32;20209;-64
2023/06/15 02:18:47;;;;;;;0.80;0.80;;;;;;;17.58;63.06;95322.25;4288114;32;20186;-64
2023/06/15 02:21:20;;;;;;;1.47;1.37;;;;;;;17.48;63.81;95312.75;4295763;32;20253;-64
2023/06/15 02:23:48;;;;;;;0.87;0.87;;;;;;;17.60;63.75;95322.69;4312989;32;20234;-64
2023/06/15 02:26:16;;;;;;;1.43;1.43;;;;;;;17.42;63.78;95324.84;4315724;33;20241;-64
2023/06/15 02:28:44;;;;;;;0.67;0.67;;;;;;;17.58;63.89;95319.56;4308238;32;20193;-64
2023/06/15 02:31:12;;;;;;;2.20;2.10;;;;;;;17.73;63.43;95322.34;4314264;32;20194;-64
2023/06/15 02:33:38;;;;;;;0.90;0.90;;;;;;;17.51;62.98;95328.16;4320603;32;20210;-64
2023/06/15 02:36:07;;;;;;;1.13;1.03;;;;;;;17.51;64.79;95323.59;4322793;32;20224;-64
2023/06/15 02:38:37;;;;;;;2.30;2.17;;;;;;;17.59;64.30;95324.59;4305789;33;20217;-64
2023/06/15 02:41:03;;;;;;;0.77;0.77;;;;;;;17.63;64.40;95324.69;4313799;32;20193;-65
2023/06/15 02:43:29;;;;;;;9.33;1.20;;;;;;;17.65;63.92;95323.28;4314350;32;20204;-64
2023/06/15 02:45:54;;;;;;;1.30;1.20;;;;;;;17.66;64.00;95319.47;4318376;32;20237;-64
2023/06/15 02:48:21;;;;;;;2.03;1.57;;;;;;;17.71;64.19;95319.22;4318045;32;20250;-64
2023/06/15 02:50:48;;;;;;;1.00;1.00;;;;;;;17.56;63.41;95319.13;4291736;32;20205;-64
2023/06/15 02:53:16;;;;;;;1.37;1.37;;;;;;;17.62;62.97;95321.25;4325807;32;20348;-64
2023/06/15 02:55:43;;;;;;;1.17;1.17;;;;;;;17.57;62.18;95324.13;4324905;32;20250;-64
2023/06/15 02:58:13;;;;;;;0.90;0.90;;;;;;;17.47;63.92;95328.03;4337343;32;20244;-65
2023/06/15 03:00:48;;;;;;;1.40;1.40;;;;;;;17.29;65.02;95328.63;4306343;32;20225;-64
2023/06/15 03:03:14;;;;;;;0.73;0.73;;;;;;;17.48;64.37;95318.88;4332212;32;20184;-65
2023/06/15 03:05:41;;;;;;;1.73;1.67;;;;;;;17.23;63.73;95327.28;4320539;32;20263;-64
2023/06/15 03:08:08;;;;;;;1.50;1.43;;;;;;;17.33;64.64;95327.63;4340517;32;20194;-64
2023/06/15 03:10:35;;;;;;;2.13;1.97;;;;;;;17.49;65.01;95330.41;4328789;32;20229;-64
2023/06/15 03:13:02;;;;;;;0.97;0.97;;;;;;;17.47;64.45;95332.62;4341601;32;20231;-64
2023/06/15 03:15:27;;;;;;;1.07;1.07;;;;;;;17.48;64.00;95340.34;4350529;32;20238;-66
2023/06/15 03:17:53;;;;;;;0.73;0.73;;;;;;;17.38;64.40;95329.31;4339969;32;20189;-64
2023/06/15 03:20:21;;;;;;;5.10;1.40;;;;;;;17.41;65.27;95336.69;4329028;32;20211;-64
2023/06/15 03:22:49;;;;;;;1.10;1.10;;;;;;;17.45;64.90;95343.72;4305913;32;20208;-64
2023/06/15 03:25:14;;;;;;;2.10;1.83;;;;;;;17.42;63.51;95347.06;4344242;32;20225;-64
2023/06/15 03:27:42;;;;;;;1.30;1.30;;;;;;;17.52;64.74;95346.59;4341183;32;20205;-65
2023/06/15 03:30:10;;;;;;;2.13;1.47;;;;;;;17.46;63.85;95341.78;4348644;32;20239;-64
2023/06/15 03:32:38;;;;;;;1.50;1.40;;;;;;;17.29;62.39;95350.06;4319802;32;20198;-64
2023/06/15 03:35:12;;;;;;;1.97;1.87;;;;;;;17.32;64.55;95346.72;4320481;32;20194;-64
2023/06/15 03:37:44;;;;;;;1.13;1.13;;;;;;;17.45;64.03;95342.94;4339925;32;20217;-64
2023/06/15 03:40:11;;;;;;;1.60;1.50;;;;;;;17.50;64.63;95342.69;4338116;32;20213;-64
2023/06/15 03:42:36;;;;;;;1.20;1.17;;;;;;;17.46;64.60;95342.56;4312261;32;20198;-64
2023/06/15 03:45:06;;;;;;;0.70;0.70;;;;;;;17.44;64.90;95349.44;4325746;32;20215;-64
2023/06/15 03:47:32;;;;;;;2.00;1.57;;;;;;;17.52;64.49;95356.56;4335670;32;20234;-64
2023/06/15 03:49:59;;;;;;;1.70;1.30;;;;;;;17.43;65.16;95354.00;4312292;32;20260;-64
2023/06/15 03:52:27;;;;;;;1.50;1.40;;;;;;;17.39;64.90;95355.00;4311250;32;20213;-64
2023/06/15 03:54:54;;;;;;;0.70;0.70;;;;;;;17.48;62.82;95353.75;4339460;32;20245;-66
2023/06/15 03:57:19;;;;;;;2.00;1.67;;;;;;;17.45;64.43;95359.81;4326601;32;20185;-64
2023/06/15 03:59:48;;;;;;;0.97;0.97;;;;;;;17.49;64.70;95360.69;4319623;32;20186;-64
2023/06/15 04:02:18;;;;;;;1.40;1.30;;;;;;;17.38;64.66;95361.47;4278159;32;20198;-64
2023/06/15 04:04:45;;;;;;;1.10;1.00;;;;;;;17.60;64.98;95357.56;4326472;32;20261;-64
2023/06/15 04:07:12;;;;;;;0.77;0.77;;;;;;;17.49;63.54;95367.94;4299725;32;20216;-64
2023/06/15 04:09:39;;;;;;;3.17;1.33;;;;;;;17.58;64.42;95367.84;4246414;32;20191;-64
2023/06/15 04:12:06;;;;;;;0.80;0.80;;;;;;;17.33;64.21;95378.56;4305448;32;20238;-64
2023/06/15 04:14:36;;;;;;;1.80;1.70;;;;;;;17.28;65.24;95378.00;4306772;32;20205;-64
2023/06/15 04:17:03;;;;;;;1.13;1.13;;;;;;;17.48;64.45;95377.13;4295047;32;20239;-65
2023/06/15 04:19:31;;;;;;;0.93;0.93;;;;;;;17.43;65.17;95385.41;4286908;32;20272;-64
2023/06/15 04:21:57;;;;;;;1.40;1.20;;;;;;;17.48;64.72;95387.84;4281674;32;20256;-64
2023/06/15 04:24:24;;;;;;;1.23;1.17;;;;;;;17.50;64.72;95390.97;4315297;32;20213;-64
2023/06/15 04:26:50;;;;;;;1.83;1.73;;;;;;;17.58;64.35;95397.37;4332561;32;20190;-65
2023/06/15 04:29:18;;;;;;;0.93;0.93;;;;;;;17.50;65.04;95391.75;4318290;32;20204;-65
2023/06/15 04:31:55;;;;;;;0.97;0.97;;;;;;;17.62;64.01;95396.38;4319244;32;20244;-64
2023/06/15 04:34:22;;;;;;;1.07;1.07;;;;;;;17.71;65.02;95391.69;4333023;32;20250;-64
2023/06/15 04:36:49;;;;;;;1.27;1.20;;;;;;;17.65;64.64;95403.78;4336831;32;20193;-64
2023/06/15 04:39:35;;;;;;;2.47;1.60;;;;;;;17.70;64.40;95400.06;4345242;32;20201;-64
2023/06/15 04:42:02;;;;;;;1.63;1.53;;;;;;;17.53;64.80;95401.03;4337966;32;20224;-64
2023/06/15 04:44:29;;;;;;;1.27;1.27;;;;;;;17.70;65.00;95400.84;4330671;32;20188;-64
2023/06/15 04:46:55;;;;;;;1.73;1.63;;;;;;;17.42;65.51;95405.31;4293812;32;20194;-64
2023/06/15 04:49:30;;;;;;;1.70;1.60;;;;;;;17.44;65.35;95411.13;4312816;32;20193;-64
2023/06/15 04:52:13;;;;;;;1.60;1.50;;;;;;;17.31;64.89;95412.97;4298551;32;20202;-64
2023/06/15 04:54:39;;;;;;;12.53;2.00;;;;;;;17.12;65.11;95418.09;4300147;32;20193;-63
2023/06/15 04:57:08;;;;;;;1.23;1.23;;;;;;;17.35;69.94;95410.44;4286710;32;20363;-65
2023/06/15 04:59:38;;;;;;;1.17;1.10;;;;;;;17.73;68.53;95404.75;4319605;32;20257;-64
2023/06/15 05:02:18;;;;;;;4.90;1.87;;;;;;;17.96;65.32;95403.19;4342840;32;20306;-63
2023/06/15 05:04:57;;;;;;;0.67;0.67;;;;;;;18.21;64.75;95406.59;4317520;32;20180;-63
2023/06/15 05:07:23;;;;;;;1.40;1.40;;;;;;;18.32;62.92;95409.59;4294460;32;20189;-62
2023/06/15 05:09:55;;;;;;;1.93;1.83;;;;;;;18.53;62.78;95416.34;4309362;32;20201;-62
2023/06/15 05:12:22;;;;;;;1.83;1.70;;;;;;;18.69;59.35;95413.75;4311383;32;20265;-65
2023/06/15 05:14:50;;;;;;;0.93;0.93;;;;;;;18.39;61.61;95415.94;4263463;32;20198;-64
2023/06/15 05:17:22;;;;;;;2.27;2.17;;;;;;;18.53;61.31;95427.09;4236529;32;20258;-64
2023/06/15 05:19:57;;;;;;;14.73;2.60;;;;;;;18.69;62.39;95421.03;4221597;33;20319;-64
2023/06/15 05:22:26;;;;;;;1.93;1.83;;;;;;;18.80;62.14;95424.78;4284063;32;20194;-64
2023/06/15 05:25:13;;;;;;;1.70;1.43;;;;;;;18.88;61.28;95426.56;4309629;32;20240;-64
2023/06/15 05:27:38;;;;;;;6.13;1.30;;;;;;;18.91;60.64;95431.25;4302532;32;20197;-64
2023/06/15 05:30:12;;;;;;;6.23;2.10;;;;;;;19.00;61.15;95428.41;4341628;32;20259;-64
2023/06/15 05:32:41;;;;;;;9.80;2.17;;;;;;;19.05;60.87;95434.31;4309499;32;20194;-64
2023/06/15 05:35:08;;;;;;;2.67;2.43;;;;;;;19.06;60.20;95427.81;4315903;32;20197;-69
2023/06/15 05:37:41;;;;;;;0.97;0.97;;;;;;;19.07;60.08;95437.44;4300929;32;20209;-64
2023/06/15 05:40:11;;;;;;;2.00;1.90;;;;;;;18.87;58.34;95428.47;4307598;32;20229;-64
2023/06/15 05:42:45;;;;;;;5.00;2.00;;;;;;;18.72;57.96;95441.84;4271671;32;20383;-64
2023/06/15 05:45:12;;;;;;;2.17;1.70;;;;;;;18.81;59.82;95437.09;4285726;32;20276;-65
2023/06/15 05:47:39;;;;;;;1.33;1.23;;;;;;;18.90;59.95;95437.75;4294748;32;20233;-64
2023/06/15 05:50:08;;;;;;;1.60;1.50;;;;;;;18.97;59.11;95440.63;4296980;32;20256;-64
2023/06/15 05:52:35;;;;;;;1.20;1.20;;;;;;;19.04;59.62;95442.72;4317083;32;20272;-64
2023/06/15 05:55:16;;;;;;;1.10;1.10;;;;;;;18.98;59.04;95442.19;4303273;32;20208;-64
2023/06/15 05:57:43;;;;;;;1.50;1.50;;;;;;;19.04;59.05;95445.41;4293460;32;20195;-64
2023/06/15 06:00:13;;;;;;;1.47;1.37;;;;;;;19.06;58.70;95449.31;4288281;32;20288;-64
2023/06/15 06:02:41;;;;;;;4.80;1.63;;;;;;;19.12;58.20;95445.25;4265365;32;20224;-64
2023/06/15 06:05:08;;;;;;;2.10;1.53;;;;;;;19.13;58.17;95444.13;4300922;32;20233;-64
2023/06/15 06:07:33;;;;;;;1.33;1.33;;;;;;;19.17;58.21;95453.06;4320190;32;20208;-64
2023/06/15 06:10:01;;;;;;;1.77;1.67;;;;;;;19.02;57.38;95453.03;4315188;32;20208;-64
2023/06/15 06:12:28;;;;;;;1.70;1.70;;;;;;;18.90;57.39;95456.56;4317157;32;20215;-63
2023/06/15 06:14:56;;;;;;;1.50;1.50;;;;;;;18.38;60.20;95454.69;4312252;32;20208;-63
2023/06/15 06:17:22;;;;;;;1.37;1.37;;;;;;;18.55;58.79;95459.78;4311364;32;20194;-63
2023/06/15 06:19:51;;;;;;;1.27;1.10;;;;;;;18.77;58.99;95455.03;4315458;32;20194;-65
2023/06/15 06:22:19;;;;;;;1.03;1.03;;;;;;;18.60;58.68;95458.81;4317924;32;20209;-66
2023/06/15 06:24:44;;;;;;;1.77;1.67;;;;;;;18.19;59.40;95470.59;4304710;32;21110;-66
2023/06/15 06:27:11;;;;;;;1.57;1.37;;;;;;;18.14;60.12;95468.94;4291761;32;20206;-66
2023/06/15 06:29:39;;;;;;;1.90;1.80;;;;;;;18.08;60.03;95470.28;4319982;32;20201;-67
2023/06/15 06:32:09;;;;;;;1.07;1.07;;;;;;;17.91;60.46;95473.19;4308836;32;20237;-66
2023/06/15 06:34:36;;;;;;;2.07;1.93;;;;;;;18.06;60.51;95477.12;4296223;32;20197;-66
2023/06/15 06:37:04;;;;;;;2.10;2.00;;;;;;;18.15;59.93;95470.50;4243281;32;20261;-66
2023/06/15 06:39:32;;;;;;;2.23;2.03;;;;;;;18.22;60.48;95471.84;4291666;32;20264;-67
2023/06/15 06:41:58;;;;;;;1.87;1.77;;;;;;;18.10;60.90;95467.25;4325716;32;20185;-66
2023/06/15 06:44:25;;;;;;;1.33;1.33;;;;;;;18.17;60.18;95470.16;4304526;32;20241;-65
2023/06/15 06:46:50;;;;;;;1.80;1.70;;;;;;;18.30;59.99;95466.31;4330437;32;20235;-66
2023/06/15 06:49:18;;;;;;;1.90;1.80;;;;;;;18.29;59.28;95461.31;4321396;32;20198;-67
2023/06/15 06:51:44;;;;;;;1.33;1.33;;;;;;;18.09;59.89;95465.69;4324291;32;20316;-66
2023/06/15 06:54:09;;;;;;;1.03;1.03;;;;;;;18.18;60.69;95469.03;4317389;32;20265;-66
2023/06/15 06:56:41;;;;;;;0.90;0.90;;;;;;;18.14;60.89;95474.31;4317619;32;20236;-66
2023/06/15 06:59:09;;;;;;;1.93;1.83;;;;;;;18.17;60.13;95462.09;4326719;32;20225;-66
2023/06/15 07:01:37;;;;;;;1.03;1.03;;;;;;;18.39;59.09;95469.69;4299147;32;20225;-67
2023/06/15 07:04:05;;;;;;;1.43;1.43;;;;;;;18.32;60.07;95464.09;4336125;32;20252;-66
2023/06/15 07:06:33;;;;;;;1.67;1.57;;;;;;;18.37;60.57;95471.91;4312316;32;20215;-67
2023/06/15 07:08:59;;;;;;;1.97;1.23;;;;;;;18.34;60.14;95469.91;4274187;32;20190;-67
2023/06/15 07:11:26;;;;;;;1.33;1.33;;;;;;;18.60;59.70;95469.56;4296190;32;20248;-66
2023/06/15 07:13:53;;;;;;;2.73;2.53;;;;;;;18.66;58.84;95467.41;4290459;32;20268;-66
2023/06/15 07:16:22;;;;;;;1.10;1.10;;;;;;;18.65;57.48;95460.47;4271835;32;20221;-67
2023/06/15 07:18:50;;;;;;;0.90;0.90;;;;;;;18.44;59.29;95464.09;4285789;32;20269;-67
2023/06/15 07:21:16;;;;;;;1.10;1.10;;;;;;;18.61;59.03;95464.97;4227523;32;20352;-67
2023/06/15 07:23:43;;;;;;;1.87;1.77;;;;;;;18.51;59.44;95463.47;4259326;32;20190;-66
2023/06/15 07:26:11;;;;;;;1.27;1.27;;;;;;;18.60;59.11;95458.81;4239556;32;20249;-67
2023/06/15 07:28:38;;;;;;;1.77;1.67;;;;;;;18.55;59.11;95465.16;4273712;32;20258;-66
2023/06/15 07:31:05;;;;;;;1.10;1.00;;;;;;;18.66;58.67;95462.03;4301747;32;20215;-66
2023/06/15 07:33:32;;;;;;;1.57;1.57;;;;;;;18.66;59.33;95464.72;4300378;32;20209;-66
2023/06/15 07:35:59;;;;;;;1.70;1.60;;;;;;;18.53;58.91;95453.19;4328318;32;20194;-66
2023/06/15 07:38:25;;;;;;;2.17;1.27;;;;;;;18.68;58.85;95459.78;4333599;32;20232;-66
2023/06/15 07:40:52;;;;;;;4.27;3.97;;;;;;;18.78;58.60;95461.97;4336641;32;20216;-67
2023/06/15 07:43:19;;;;;;;1.60;1.53;;;;;;;19.00;57.91;95460.66;4291723;32;20198;-67
2023/06/15 07:45:46;;;;;;;1.37;1.27;;;;;;;19.07;56.09;95456.28;4327293;32;20194;-66
2023/06/15 07:48:18;;;;;;;1.13;1.13;;;;;;;19.23;56.32;95458.97;4310111;32;20254;-66
2023/06/15 07:50:46;;;;;;;0.93;0.93;;;;;;;19.44;55.44;95456.06;4281981;32;20244;-66
2023/06/15 07:53:18;;;;;;;1.20;1.10;;;;;;;19.59;55.96;95459.91;4314550;32;20265;-66
2023/06/15 07:55:47;;;;;;;1.13;1.13;;;;;;;19.69;56.12;95456.72;4318780;32;20214;-67
2023/06/15 07:58:13;;;;;;;1.10;1.10;;;;;;;19.67;54.07;95457.06;4337775;32;20300;-67
2023/06/15 08:00:40;;;;;;;0.87;0.87;;;;;;;19.83;53.95;95459.72;4316831;32;20209;-67
2023/06/15 08:03:07;;;;;;;0.97;0.97;;;;;;;19.96;53.48;95461.19;4319154;32;20232;-66
2023/06/15 08:05:34;;;;;;;1.53;1.30;;;;;;;19.96;52.80;95457.72;4298707;32;20265;-66
2023/06/15 08:07:59;;;;;;;2.83;1.50;;;;;;;20.08;53.13;95460.31;4306687;32;20267;-66
2023/06/15 08:10:25;;;;;;;1.27;1.27;;;;;;;20.06;53.15;95457.97;4339921;32;20186;-66
2023/06/15 08:13:02;;;;;;;1.23;1.20;;;;;;;20.14;53.60;95456.22;4282530;33;20189;-66
2023/06/15 08:15:28;;;;;;;1.03;1.03;;;;;;;20.16;52.48;95459.34;4318789;32;20243;-66
2023/06/15 08:17:57;;;;;;;1.40;1.40;;;;;;;20.03;52.64;95458.66;4343115;32;20194;-65
2023/06/15 08:20:22;;;;;;;1.73;1.63;;;;;;;20.01;52.54;95466.31;4348006;32;20251;-66
2023/06/15 08:22:50;;;;;;;1.03;0.83;;;;;;;20.06;52.55;95463.34;4312765;32;20244;-66
2023/06/15 08:25:18;;;;;;;1.13;1.13;;;;;;;20.07;52.86;95464.94;4300898;32;20223;-66
2023/06/15 08:27:45;;;;;;;1.77;1.50;;;;;;;20.11;52.86;95467.72;4298152;32;20200;-66
2023/06/15 08:30:13;;;;;;;0.90;0.90;;;;;;;20.07;52.48;95464.94;4297549;32;20229;-66
2023/06/15 08:32:38;;;;;;;0.93;0.93;;;;;;;20.03;53.21;95465.97;4329724;32;20197;-66
2023/06/15 08:35:04;;;;;;;0.93;0.90;;;;;;;20.03;53.23;95469.44;4330035;32;20248;-66
2023/06/15 08:37:31;;;;;;;1.40;1.30;;;;;;;19.94;53.30;95470.78;4323735;32;20228;-66
2023/06/15 08:39:57;;;;;;;1.17;1.17;;;;;;;19.82;53.61;95464.34;4314427;32;20193;-65
2023/06/15 08:42:25;;;;;;;1.03;1.03;;;;;;;19.80;54.03;95466.59;4334379;32;20200;-65
2023/06/15 08:44:54;;;;;;;1.00;1.00;;;;;;;19.88;53.91;95465.66;4312360;32;20356;-66
2023/06/15 08:47:21;;;;;;;0.80;0.80;;;;;;;19.94;53.40;95465.37;4338398;32;20193;-66
2023/06/15 08:49:48;;;;;;;1.00;1.00;;;;;;;20.00;52.91;95470.12;4284134;32;20197;-66
2023/06/15 08:52:20;;;;;;;0.83;0.83;;;;;;;20.04;51.89;95464.84;4275067;32;20339;-67
2023/06/15 08:54:53;;;;;;;0.87;0.87;;;;;;;20.09;50.95;95478.03;4323102;32;20273;-66
2023/06/15 08:57:20;;;;;;;9.63;1.67;;;;;;;20.10;50.49;95471.53;4338205;32;20256;-66
2023/06/15 08:59:47;;;;;;;0.83;0.83;;;;;;;20.18;50.54;95470.53;4348438;32;20273;-66
2023/06/15 09:02:22;;;;;;;0.80;0.80;;;;;;;20.37;49.15;95476.00;4328300;32;20256;-66
2023/06/15 09:04:51;;;;;;;1.27;1.23;;;;;;;20.12;47.14;95471.97;4319997;32;20193;-66
2023/06/15 09:07:21;;;;;;;2.53;0.77;;;;;;;20.34;47.56;95470.53;4332353;32;20211;-66
2023/06/15 09:10:19;;;;;;;0.93;0.93;;;;;;;20.48;48.26;95473.56;4285025;32;20221;-66
2023/06/15 09:12:55;;;;;;;1.07;1.07;;;;;;;20.66;46.79;95466.63;4340121;32;20253;-66
2023/06/15 09:15:24;;;;;;;1.37;1.37;;;;;;;20.67;47.02;95470.09;4342808;32;20245;-66
2023/06/15 09:17:52;;;;;;;0.80;0.80;;;;;;;20.59;47.58;95466.47;4334902;32;20216;-66
2023/06/15 09:20:21;;;;;;;1.13;1.13;;;;;;;20.65;46.60;95475.84;4327164;32;20200;-66
2023/06/15 09:22:48;;;;;;;1.20;1.20;;;;;;;20.58;46.10;95462.97;4335240;32;20213;-66
2023/06/15 09:25:21;;;;;;;0.70;0.70;;;;;;;20.61;46.50;95471.50;4333925;32;20296;-66
2023/06/15 09:28:07;;;;;;;1.20;1.20;;;;;;;20.59;47.09;95469.94;4321953;32;20392;-66
2023/06/15 09:30:34;;;;;;;1.07;1.07;;;;;;;20.69;46.52;95465.91;4288434;32;20251;-66
2023/06/15 09:33:26;;;;;;;0.97;0.87;;;;;;;20.77;46.35;95469.56;4316289;32;20186;-66
2023/06/15 09:36:08;;;;;;;1.23;1.20;;;;;;;20.57;47.66;95466.06;4323508;32;20295;-66
2023/06/15 09:38:45;;;;;;;0.50;0.50;;;;;;;20.52;47.56;95461.72;4322859;32;20265;-66
2023/06/15 09:41:14;;;;;;;1.30;1.23;;;;;;;20.72;47.21;95449.03;4341336;32;20263;-66
2023/06/15 09:43:42;;;;;;;1.53;1.43;;;;;;;20.91;48.81;95459.03;4316068;32;20207;-65
2023/06/15 09:46:12;;;;;;;1.27;1.27;;;;;;;20.88;49.36;95451.66;4327617;32;20189;-66
2023/06/15 09:48:49;;;;;;;1.10;1.10;;;;;;;20.86;49.71;95456.63;4331099;32;20215;-66
2023/06/15 09:51:36;;;;;;;0.87;0.87;;;;;;;20.72;50.50;95446.34;4290597;32;20253;-67
2023/06/15 09:54:03;;;;;;;9.27;1.40;;;;;;;20.87;49.84;95450.87;4323955;32;20197;-66
2023/06/15 09:56:31;;;;;;;1.63;1.60;;;;;;;21.15;47.87;95453.34;4299725;32;20197;-66
2023/06/15 09:59:02;;;;;;;1.27;1.27;;;;;;;21.29;46.01;95454.75;4345565;32;20197;-66
2023/06/15 10:01:36;;;;;;;1.73;1.63;;;;;;;21.43;45.54;95455.00;4333742;32;20193;-65
2023/06/15 10:04:09;;;;;;;1.13;1.13;;;;;;;21.51;44.73;95454.00;4325345;32;20236;-66
2023/06/15 10:06:37;;;;;;;0.87;0.87;;;;;;;21.47;44.01;95445.84;4282887;32;20193;-66
2023/06/15 10:09:06;;;;;;;0.80;0.80;;;;;;;21.59;44.40;95448.38;4301149;32;20197;-66
2023/06/15 10:11:38;;;;;;;0.80;0.80;;;;;;;21.66;46.04;95449.59;4317764;32;20193;-66
2023/06/15 10:14:13;;;;;;;0.50;0.50;;;;;;;21.85;43.51;95450.31;4302155;32;20211;-67
2023/06/15 10:16:41;;;;;;;1.00;1.00;;;;;;;21.89;41.35;95453.06;4300885;32;20244;-66
2023/06/15 10:19:15;;;;;;;1.30;1.30;;;;;;;21.83;40.88;95452.59;4300916;32;20221;-66
2023/06/15 10:21:48;;;;;;;1.20;1.10;;;;;;;21.90;42.08;95447.31;4298310;32;20193;-66
2023/06/15 10:24:16;;;;;;;0.80;0.80;;;;;;;21.83;42.30;95444.50;4307819;32;20308;-66
2023/06/15 10:26:43;;;;;;;0.73;0.73;;;;;;;21.85;41.97;95442.22;4329190;32;20210;-66
2023/06/15 10:29:25;;;;;;;2.80;1.00;;;;;;;21.53;41.76;95449.81;4293416;32;20209;-66
2023/06/15 10:32:15;;;;;;;0.80;0.80;;;;;;;21.66;41.64;95450.37;4238089;33;20212;-67
2023/06/15 10:34:54;;;;;;;0.80;0.77;;;;;;;21.45;42.40;95450.03;4272483;32;20210;-66
2023/06/15 10:37:41;;;;;;;1.03;1.03;;;;;;;21.37;43.11;95441.03;4293646;32;20282;-67
2023/06/15 10:40:21;;;;;;;1.10;1.10;;;;;;;21.22;43.54;95448.09;4331290;32;20247;-66
2023/06/15 10:42:52;;;;;;;1.47;1.37;;;;;;;21.22;43.78;95447.31;4301186;32;20316;-67
2023/06/15 10:45:28;;;;;;;0.90;0.90;;;;;;;21.16;44.61;95444.09;4324915;32;20212;-66
2023/06/15 10:47:56;;;;;;;1.13;1.13;;;;;;;21.11;45.50;95457.09;4289102;32;20212;-66
2023/06/15 10:50:22;;;;;;;1.10;1.10;;;;;;;21.07;47.07;95448.94;4301028;32;20212;-66
2023/06/15 10:52:50;;;;;;;0.87;0.87;;;;;;;20.96;47.44;95450.66;4313287;32;20200;-66
2023/06/15 10:55:27;;;;;;;1.50;1.40;;;;;;;20.94;46.87;95455.63;4337521;32;20300;-66
2023/06/15 10:58:18;;;;;;;1.23;1.23;;;;;;;20.96;45.80;95455.28;4319570;32;20216;-66
2023/06/15 11:01:05;;;;;;;0.77;0.77;;;;;;;20.98;46.13;95453.78;4304424;32;20276;-66
2023/06/15 11:03:33;;;;;;;1.77;1.50;;;;;;;20.98;46.70;95453.00;4340948;32;20207;-66
2023/06/15 11:06:48;;;;;;;1.50;1.40;;;;;;;20.96;46.94;95447.97;4275368;32;20249;-66
2023/06/15 11:09:20;;;;;;;0.83;0.83;;;;;;;21.03;46.10;95453.47;4307689;32;20320;-66
2023/06/15 11:11:47;;;;;;;1.73;1.13;;;;;;;21.07;46.20;95440.84;4334453;32;22923;-66
2023/06/15 11:14:23;;;;;;;1.17;1.10;;;;;;;21.24;45.12;95440.41;4289082;32;22999;-66
2023/06/15 11:17:04;;;;;;;0.97;0.97;;;;;;;21.36;44.99;95446.78;4284215;32;20184;-67
2023/06/15 11:19:31;;;;;;;1.00;1.00;;;;;;;21.45;44.36;95439.22;4327114;32;20193;-65
2023/06/15 11:22:06;;;;;;;1.30;1.30;;;;;;;21.53;43.18;95449.03;4322527;32;20201;-65
2023/06/15 11:24:41;;;;;;;0.90;0.90;;;;;;;21.50;40.80;95433.53;4333402;32;20249;-66
2023/06/15 11:27:09;;;;;;;0.60;0.60;;;;;;;21.64;40.48;95439.16;4326230;32;20196;-66
2023/06/15 11:29:58;;;;;;;0.70;0.70;;;;;;;21.56;40.11;95435.59;4309255;32;20198;-66
2023/06/15 11:32:27;;;;;;;1.10;1.00;;;;;;;21.58;39.12;95432.53;4332850;32;20199;-66
2023/06/15 11:35:03;;;;;;;0.50;0.50;;;;;;;21.48;40.57;95422.31;4323264;32;20238;-66
2023/06/15 11:37:33;;;;;;;0.90;0.90;;;;;;;21.59;40.27;95423.28;4301065;32;20227;-66
2023/06/15 11:40:06;;;;;;;0.80;0.80;;;;;;;21.76;40.99;95428.19;4324890;32;20219;-66
2023/06/15 11:42:35;;;;;;;0.73;0.73;;;;;;;21.91;39.68;95429.97;4294751;32;20193;-66
2023/06/15 11:45:28;;;;;;;0.83;0.83;;;;;;;22.10;39.40;95425.63;4328600;32;20193;-66
2023/06/15 11:47:54;;;;;;;3.27;1.53;;;;;;;22.22;38.60;95433.53;4298064;32;20193;-66